Time;durP1;ratioP1;P1;durP2;ratioP2;P2;SDS_P1;SDS_P2;PMS_P1;PMS_P2;Temp;Humidity;BMP_temperature;BMP_pressure;BME280_temperature;BME280_humidity;BME280_pressure;Samples;Min_cycle;Max_cycle;Signal;HPM_P1;HPM_P2
2022/12/31 00:08:05;;;;;;;28.40;19.50;;;;;;;2.61;94.28;99276.77;436231;1280;142571;-63
2022/12/31 00:18:11;;;;;;;28.10;18.10;;;;;;;2.69;93.94;99261.78;432982;1281;142500;-63
2022/12/31 00:28:17;;;;;;;25.40;16.50;;;;;;;2.78;93.54;99254.04;436285;1281;142193;-63
2022/12/31 00:38:23;;;;;;;18.80;14.00;;;;;;;2.88;93.61;99246.72;436306;1282;142243;-64
2022/12/31 00:48:29;;;;;;;20.80;15.40;;;;;;;2.97;93.51;99240.88;435501;1282;143479;-62
2022/12/31 00:58:35;;;;;;;17.90;13.00;;;;;;;3.04;93.20;99250.47;436213;1279;141973;-64
2022/12/31 01:08:41;;;;;;;18.00;11.90;;;;;;;3.13;93.38;99244.41;436216;1280;141616;-63
2022/12/31 01:18:48;;;;;;;19.60;12.30;;;;;;;3.24;93.22;99239.64;435449;1281;169395;-63
2022/12/31 01:28:54;;;;;;;15.80;11.70;;;;;;;3.41;93.55;99231.88;436186;1281;142417;-63
2022/12/31 01:39:01;;;;;;;18.60;13.40;;;;;;;3.68;93.48;99223.01;436334;1284;143927;-63
2022/12/31 01:49:16;;;;;;;18.30;12.80;;;;;;;3.92;93.13;99213.73;423919;1280;141600;-63
2022/12/31 01:59:25;;;;;;;19.40;13.50;;;;;;;4.18;93.09;99202.91;433647;1279;142394;-61
2022/12/31 02:09:32;;;;;;;17.20;11.90;;;;;;;4.39;92.86;99187.23;432746;1281;141790;-61
2022/12/31 02:19:53;;;;;;;;;;;;;;;4.56;92.53;99186.84;434249;1282;142356;-61
2022/12/31 02:30:12;;;;;;;17.00;12.60;;;;;;;4.76;92.17;99201.56;419360;1275;128132;-61
2022/12/31 02:40:22;;;;;;;17.70;12.10;;;;;;;4.87;91.96;99198.61;419997;1281;208056;-62
2022/12/31 02:50:54;;;;;;;20.80;14.10;;;;;;;4.94;91.77;99182.17;425378;1279;142815;-62
2022/12/31 03:32:11;;;;;;;15.80;11.60;;;;;;;5.27;91.67;99203.82;423294;1280;141626;-61
2022/12/31 03:42:17;;;;;;;14.00;10.30;;;;;;;5.36;91.74;99217.48;427554;1281;141597;-61
2022/12/31 03:52:23;;;;;;;14.20;10.30;;;;;;;5.45;91.78;99213.73;427254;1281;141668;-61
2022/12/31 04:02:29;;;;;;;13.20;8.80;;;;;;;5.55;91.79;99220.04;429478;1281;143329;-62
2022/12/31 04:12:36;;;;;;;9.30;7.50;;;;;;;5.63;91.91;99231.44;424255;1281;142578;-62
2022/12/31 04:22:42;;;;;;;10.80;8.40;;;;;;;5.76;92.06;99229.95;425778;1283;141901;-62
2022/12/31 04:32:49;;;;;;;10.60;7.70;;;;;;;5.85;92.33;99232.45;428111;1275;142550;-62
2022/12/31 04:42:54;;;;;;;8.70;7.20;;;;;;;5.91;92.62;99238.92;420566;1281;142403;-62
2022/12/31 04:53:00;;;;;;;7.70;6.30;;;;;;;5.97;92.87;99245.42;424669;1275;142057;-63
2022/12/31 05:03:06;;;;;;;8.70;7.00;;;;;;;6.01;92.95;99248.33;422055;1281;141627;-64
2022/12/31 05:13:13;;;;;;;8.90;7.00;;;;;;;6.06;92.99;99234.92;425994;1281;207559;-63
2022/12/31 05:23:20;;;;;;;8.30;6.90;;;;;;;6.10;92.99;99231.59;423512;1281;141345;-61
2022/12/31 05:33:26;;;;;;;8.30;6.70;;;;;;;6.15;92.93;99234.29;425292;1278;142363;-62
2022/12/31 05:43:32;;;;;;;9.10;6.60;;;;;;;6.22;92.82;99238.29;420215;1274;141740;-61
2022/12/31 05:53:38;;;;;;;9.80;7.10;;;;;;;6.26;92.67;99243.30;419902;1274;141911;-62
2022/12/31 06:03:45;;;;;;;6.60;5.60;;;;;;;6.28;92.63;99245.59;418602;1275;141164;-62
2022/12/31 06:13:51;;;;;;;8.20;6.40;;;;;;;6.33;92.53;99260.50;423139;1274;142607;-61
2022/12/31 06:23:57;;;;;;;7.80;6.40;;;;;;;6.30;92.38;99270.55;424133;1281;141567;-63
2022/12/31 06:34:04;;;;;;;8.50;6.60;;;;;;;6.31;92.55;99282.28;422547;1275;141334;-62
2022/12/31 06:44:09;;;;;;;8.60;7.70;;;;;;;6.35;92.55;99271.35;421815;1274;141416;-62
2022/12/31 06:54:16;;;;;;;9.30;6.60;;;;;;;6.33;92.37;99271.79;419627;1275;142625;-62
2022/12/31 07:04:44;;;;;;;7.30;6.40;;;;;;;6.27;92.52;99285.81;419794;1275;141103;-64
2022/12/31 07:14:57;;;;;;;9.60;7.20;;;;;;;6.24;92.51;99294.65;423166;1275;141600;-62
2022/12/31 07:25:05;;;;;;;7.40;6.60;;;;;;;6.27;92.81;99287.90;422086;1274;141559;-62
2022/12/31 07:35:21;;;;;;;7.40;5.70;;;;;;;6.45;92.86;99280.89;422365;1281;144074;-62
2022/12/31 07:45:35;;;;;;;6.70;5.70;;;;;;;6.89;92.54;99300.89;435259;1282;142144;-63
2022/12/31 07:55:40;;;;;;;7.00;6.00;;;;;;;7.23;92.00;99323.27;427166;1274;142069;-61
2022/12/31 08:05:55;;;;;;;6.90;5.00;;;;;;;7.31;91.60;99315.00;422173;1275;141659;-62
2022/12/31 08:16:02;;;;;;;6.20;4.20;;;;;;;7.38;91.58;99302.40;435493;1274;142504;-63
2022/12/31 08:26:19;;;;;;;5.40;4.20;;;;;;;7.66;91.29;99307.32;424472;1274;141268;-62
2022/12/31 08:36:32;;;;;;;7.50;5.70;;;;;;;7.96;90.65;99305.46;423861;1279;142583;-62
2022/12/31 08:46:46;;;;;;;5.60;5.00;;;;;;;8.27;90.46;99301.41;436156;1283;142157;-61
2022/12/31 08:56:58;;;;;;;4.70;4.20;;;;;;;8.87;89.88;99308.33;435900;1284;143485;-62
2022/12/31 09:07:05;;;;;;;5.10;4.10;;;;;;;9.97;88.83;99315.34;431178;1280;141691;-62
2022/12/31 09:17:25;;;;;;;3.90;3.20;;;;;;;11.40;87.01;99318.03;430243;1281;141244;-61
2022/12/31 09:27:37;;;;;;;3.10;2.80;;;;;;;13.43;84.10;99324.10;425507;1275;145873;-62
2022/12/31 09:37:48;;;;;;;4.20;3.40;;;;;;;12.92;81.77;99300.33;434336;1277;142502;-63
2022/12/31 09:48:28;;;;;;;5.10;4.60;;;;;;;11.68;81.91;99278.90;436397;1281;143191;-62
2022/12/31 09:58:43;;;;;;;3.20;2.90;;;;;;;11.56;83.03;99280.15;436054;1284;197371;-63
2022/12/31 10:09:06;;;;;;;3.30;2.90;;;;;;;11.75;82.46;99279.49;436476;1282;141857;-62
2022/12/31 10:19:53;;;;;;;3.40;2.80;;;;;;;11.35;82.51;99259.04;436154;1282;142145;-62
2022/12/31 10:30:11;;;;;;;3.50;2.70;;;;;;;11.22;82.99;99249.31;436578;1281;142538;-63
2022/12/31 10:40:34;;;;;;;2.90;2.20;;;;;;;11.29;83.13;99260.00;436015;1276;142178;-62
2022/12/31 10:51:11;;;;;;;3.60;3.20;;;;;;;10.84;83.81;99251.47;436576;1274;142769;-62
2022/12/31 11:01:28;;;;;;;3.60;2.50;;;;;;;10.26;86.26;99245.27;436125;1281;213363;-62
2022/12/31 11:11:41;;;;;;;5.80;3.80;;;;;;;9.92;87.83;99218.85;426474;1279;141428;-63
2022/12/31 11:22:05;;;;;;;8.00;6.10;;;;;;;9.86;88.52;99207.36;435592;1283;141843;-63
2022/12/31 11:32:26;;;;;;;5.20;4.70;;;;;;;9.83;88.75;99198.63;436539;1282;142241;-62
2022/12/31 11:42:46;;;;;;;6.20;3.90;;;;;;;9.83;88.89;99193.38;435856;1281;160696;-62
2022/12/31 11:53:03;;;;;;;5.20;4.20;;;;;;;9.91;88.88;99190.79;436552;1281;141778;-63
2022/12/31 12:03:11;;;;;;;4.80;4.10;;;;;;;10.06;88.78;99190.95;435767;1281;144068;-62
2022/12/31 12:13:19;;;;;;;;;;;;;;;10.24;88.49;99189.93;436577;1274;142102;-62
2022/12/31 12:23:26;;;;;;;5.50;4.50;;;;;;;10.51;88.29;99171.69;436777;1281;130079;-62
2022/12/31 12:33:43;;;;;;;7.00;4.30;;;;;;;10.80;87.74;99157.38;428133;1274;141632;-63
2022/12/31 12:43:49;;;;;;;6.70;5.30;;;;;;;10.70;87.47;99145.85;432631;1281;142026;-62
2022/12/31 12:54:03;;;;;;;4.60;3.80;;;;;;;10.71;87.71;99149.63;436410;1283;142713;-62
2022/12/31 13:04:39;;;;;;;3.60;3.00;;;;;;;10.91;87.83;99142.42;435929;1275;212470;-62
2022/12/31 13:14:54;;;;;;;4.50;4.10;;;;;;;11.19;87.79;99147.77;432715;1274;191705;-61
2022/12/31 13:25:07;;;;;;;3.40;2.70;;;;;;;11.33;87.78;99149.14;429482;1274;141508;-62
2022/12/31 13:35:27;;;;;;;2.50;2.30;;;;;;;11.49;87.67;99160.47;424073;1274;141695;-63
2022/12/31 13:45:37;;;;;;;2.80;2.10;;;;;;;11.59;87.45;99174.08;435811;1281;143060;-62
2022/12/31 13:55:50;;;;;;;3.10;2.70;;;;;;;11.67;87.28;99184.48;436503;1281;143536;-62
2022/12/31 14:06:03;;;;;;;;;;;;;;;11.68;87.24;99192.17;436530;1277;141717;-62
2022/12/31 14:16:12;;;;;;;;;;;;;;;11.68;87.18;99191.63;436212;1281;128913;-63
2022/12/31 14:26:26;;;;;;;5.00;3.00;;;;;;;11.71;87.16;99190.00;436573;1278;130505;-63
2022/12/31 14:36:43;;;;;;;5.30;2.80;;;;;;;11.74;87.26;99195.75;435604;1281;145874;-63
2022/12/31 14:47:04;;;;;;;8.10;5.20;;;;;;;11.75;87.27;99197.62;435585;1274;142732;-62
2022/12/31 14:57:24;;;;;;;8.30;4.90;;;;;;;11.69;87.22;99191.51;435504;1282;142044;-62
2022/12/31 15:07:40;;;;;;;5.30;3.80;;;;;;;11.50;87.39;99207.17;436424;1281;141940;-62
2022/12/31 15:17:57;;;;;;;7.60;4.90;;;;;;;11.37;87.77;99219.50;436482;1277;142496;-61
2022/12/31 15:28:06;;;;;;;6.00;4.20;;;;;;;11.26;88.10;99221.00;435458;1274;184421;-62
2022/12/31 15:38:36;;;;;;;5.60;3.80;;;;;;;11.21;88.40;99230.85;436353;1274;144886;-62
2022/12/31 15:48:46;;;;;;;6.70;3.70;;;;;;;11.24;88.68;99247.45;435620;1282;142353;-62
2022/12/31 15:58:59;;;;;;;9.70;5.40;;;;;;;11.40;88.61;99239.06;436289;1274;141510;-62
2022/12/31 16:09:09;;;;;;;6.50;4.90;;;;;;;11.43;88.42;99240.66;435972;1287;142035;-61
2022/12/31 16:19:28;;;;;;;8.80;5.10;;;;;;;11.33;88.52;99246.61;435665;1274;141689;-61
2022/12/31 16:29:37;;;;;;;10.20;5.50;;;;;;;11.34;88.69;99259.30;434324;1282;142729;-61
2022/12/31 16:40:16;;;;;;;10.20;5.90;;;;;;;11.41;88.79;99267.77;435290;1281;142800;-62
2022/12/31 16:50:24;;;;;;;7.50;5.30;;;;;;;11.46;88.71;99267.54;436025;1281;142402;-63
2022/12/31 17:00:32;;;;;;;24.30;13.60;;;;;;;11.50;88.75;99273.55;435395;1282;142442;-63
2022/12/31 17:10:37;;;;;;;10.70;5.00;;;;;;;11.60;88.84;99278.66;436237;1284;142768;-62
2022/12/31 17:20:44;;;;;;;6.30;4.30;;;;;;;11.70;88.79;99273.73;436407;1282;143371;-62
2022/12/31 17:30:50;;;;;;;11.00;6.30;;;;;;;11.80;88.71;99286.68;435544;1281;142347;-63
2022/12/31 17:41:04;;;;;;;9.10;6.30;;;;;;;11.87;88.61;99285.83;436147;1281;142798;-62
2022/12/31 17:51:10;;;;;;;18.40;9.40;;;;;;;11.95;88.55;99286.95;435457;1276;142288;-62
2022/12/31 18:01:18;;;;;;;15.70;11.70;;;;;;;12.02;88.44;99290.88;436334;1281;141729;-63
2022/12/31 18:11:25;;;;;;;7.00;5.00;;;;;;;11.92;88.25;99287.92;436363;1281;142268;-62
2022/12/31 18:21:33;;;;;;;9.70;5.80;;;;;;;11.74;88.43;99295.67;428611;1281;142373;-63
2022/12/31 18:31:38;;;;;;;;;;;;;;;11.65;88.58;99299.65;436455;1280;142768;-62
2022/12/31 18:41:48;;;;;;;6.10;4.40;;;;;;;11.63;88.77;99301.41;436537;1288;128576;-63
2022/12/31 18:51:55;;;;;;;5.90;4.40;;;;;;;11.60;88.77;99307.37;427563;1282;142526;-62
2022/12/31 19:02:01;;;;;;;7.20;4.80;;;;;;;11.60;88.81;99315.64;428052;1281;141918;-63
2022/12/31 19:12:10;;;;;;;8.10;5.40;;;;;;;11.57;88.76;99320.63;435603;1287;143124;-63
2022/12/31 19:22:17;;;;;;;6.60;4.70;;;;;;;11.55;88.66;99336.66;436338;1282;141911;-63
2022/12/31 19:32:22;;;;;;;7.20;5.80;;;;;;;11.49;88.65;99337.33;436439;1284;143285;-64
2022/12/31 19:42:28;;;;;;;8.30;5.20;;;;;;;11.42;88.93;99342.88;435646;1287;144062;-63
2022/12/31 19:52:34;;;;;;;6.10;5.40;;;;;;;11.45;89.01;99334.27;436356;1281;141516;-64
2022/12/31 20:02:40;;;;;;;4.80;4.30;;;;;;;11.48;89.04;99321.59;436423;1280;142828;-63
2022/12/31 20:12:46;;;;;;;6.20;4.40;;;;;;;11.50;89.07;99326.16;435803;1288;143798;-63
2022/12/31 20:22:52;;;;;;;6.80;4.60;;;;;;;11.51;89.16;99322.41;436585;1286;142420;-62
2022/12/31 20:32:58;;;;;;;7.40;4.70;;;;;;;11.51;89.09;99336.77;436389;1281;144687;-62
2022/12/31 20:43:04;;;;;;;6.20;4.20;;;;;;;11.54;89.16;99346.91;434472;1282;141941;-62
2022/12/31 20:53:10;;;;;;;7.10;5.40;;;;;;;11.55;89.05;99354.22;433315;1280;144766;-62
2022/12/31 21:03:17;;;;;;;5.10;3.60;;;;;;;11.46;88.98;99359.55;435581;1282;141696;-62
2022/12/31 21:13:43;;;;;;;6.60;4.00;;;;;;;11.36;89.21;99347.52;436598;1287;143043;-63
2022/12/31 21:23:49;;;;;;;7.20;4.90;;;;;;;11.23;89.31;99335.77;436538;1281;142317;-63
2022/12/31 21:33:55;;;;;;;9.50;5.80;;;;;;;11.15;89.74;99342.51;435816;1280;142668;-62
2022/12/31 21:44:01;;;;;;;10.90;7.30;;;;;;;11.10;89.82;99348.82;435801;1282;143531;-63
2022/12/31 21:56:06;;;;;;;4.70;3.70;;;;;;;11.17;89.96;99338.45;436351;1282;142953;-63
2022/12/31 22:04:33;;;;;;;4.30;3.50;;;;;;;11.34;89.91;99335.36;436253;1281;211520;-63
2022/12/31 22:14:59;;;;;;;5.00;4.50;;;;;;;11.45;89.65;99337.71;436570;1282;142977;-62
2022/12/31 22:25:21;;;;;;;6.40;3.60;;;;;;;11.61;89.50;99354.52;436032;1280;142032;-62
2022/12/31 22:35:27;;;;;;;4.80;3.40;;;;;;;11.79;89.20;99357.44;436571;1280;142894;-63
2022/12/31 22:45:33;;;;;;;4.90;3.40;;;;;;;11.95;88.69;99362.38;429944;1281;142064;-63
2022/12/31 22:55:39;;;;;;;3.30;2.60;;;;;;;12.10;88.20;99360.64;427049;1282;142188;-62
2022/12/31 23:05:47;;;;;;;19.30;16.60;;;;;;;12.10;87.82;99364.30;436559;1289;143038;-63
2022/12/31 23:26:17;;;;;;;7.30;5.00;;;;;;;12.13;87.30;99357.80;435881;1282;142023;-62
2022/12/31 23:36:23;;;;;;;10.00;8.90;;;;;;;12.04;87.02;99356.98;435803;1274;141886;-63
2022/12/31 23:46:29;;;;;;;24.10;19.70;;;;;;;11.86;87.14;99366.74;436294;1282;142958;-63
2022/12/31 23:56:35;;;;;;;14.10;11.50;;;;;;;11.50;87.16;99372.60;436493;1282;145089;-64
